Time;durP1;ratioP1;P1;durP2;ratioP2;P2;SDS_P1;SDS_P2;PMS_P1;PMS_P2;Temp;Humidity;BMP_temperature;BMP_pressure;BME280_temperature;BME280_humidity;BME280_pressure;Samples;Min_cycle;Max_cycle;Signal;HPM_P1;HPM_P2
2021/07/19 00:00:53;;;;;;;9.40;4.78;;;;;;;17.39;100.00;98042.44;5026815;28;20053;-83
2021/07/19 00:03:19;;;;;;;7.53;4.63;;;;;;;17.40;100.00;98039.34;5041995;28;20046;-82
2021/07/19 00:05:46;;;;;;;11.18;4.68;;;;;;;17.42;100.00;98022.59;5025446;28;20465;-84
2021/07/19 00:08:26;;;;;;;12.85;4.65;;;;;;;17.41;100.00;98032.72;5043657;28;20069;-82
2021/07/19 00:10:52;;;;;;;13.82;4.90;;;;;;;17.43;100.00;98030.44;5025382;28;20116;-82
2021/07/19 00:13:19;;;;;;;13.30;5.05;;;;;;;17.44;100.00;98028.50;5043206;28;20041;-82
2021/07/19 00:15:47;;;;;;;12.23;5.40;;;;;;;17.32;100.00;98010.19;5026016;28;20042;-83
2021/07/19 00:18:13;;;;;;;12.60;5.28;;;;;;;17.40;100.00;98022.91;5045227;28;20048;-81
2021/07/19 00:20:40;;;;;;;11.63;5.18;;;;;;;17.39;100.00;98024.06;5036294;28;20303;-82
2021/07/19 00:23:07;;;;;;;15.00;5.10;;;;;;;17.44;100.00;98034.78;5014692;28;20045;-80
2021/07/19 00:25:34;;;;;;;13.18;4.97;;;;;;;17.41;100.00;98032.72;5014263;28;20421;-80
2021/07/19 00:28:01;;;;;;;15.32;5.80;;;;;;;17.35;100.00;98019.63;5036922;28;20079;-79
2021/07/19 00:30:28;;;;;;;16.08;5.00;;;;;;;17.33;100.00;98010.97;5022076;28;20057;-82
2021/07/19 00:32:54;;;;;;;8.45;4.90;;;;;;;17.43;100.00;98027.69;5020612;28;20045;-81
2021/07/19 00:35:21;;;;;;;12.07;4.88;;;;;;;17.52;100.00;98034.97;5043118;28;20056;-82
2021/07/19 00:37:47;;;;;;;14.02;5.28;;;;;;;17.52;100.00;98037.69;5043012;28;20121;-83
2021/07/19 00:40:18;;;;;;;14.65;5.25;;;;;;;17.55;100.00;98046.03;5039788;28;20053;-81
2021/07/19 00:42:46;;;;;;;9.32;4.72;;;;;;;17.55;100.00;98053.47;5021384;28;20035;-82
2021/07/19 00:45:16;;;;;;;13.98;5.22;;;;;;;17.57;100.00;98053.91;5033441;28;20029;-83
2021/07/19 00:47:48;;;;;;;13.90;5.07;;;;;;;17.58;100.00;98053.53;5052095;28;20049;-81
2021/07/19 00:50:17;;;;;;;12.20;5.05;;;;;;;17.65;100.00;98055.69;5050782;28;20037;-81
2021/07/19 00:52:44;;;;;;;15.63;5.70;;;;;;;17.76;100.00;98054.81;5033738;28;20060;-81
2021/07/19 00:55:12;;;;;;;10.90;5.25;;;;;;;17.84;100.00;98045.63;5033354;28;20072;-83
2021/07/19 00:57:43;;;;;;;13.15;5.75;;;;;;;17.86;100.00;98045.31;5047951;28;20041;-83
2021/07/19 01:00:12;;;;;;;11.90;5.70;;;;;;;17.92;100.00;98041.94;5050886;28;20607;-84
2021/07/19 01:02:42;;;;;;;15.82;6.05;;;;;;;17.93;100.00;98040.00;5062602;28;20045;-82
2021/07/19 01:05:10;;;;;;;16.90;6.55;;;;;;;17.93;100.00;98045.47;5036985;28;20071;-82
2021/07/19 01:07:38;;;;;;;12.18;6.15;;;;;;;17.86;100.00;98048.03;5052041;28;20041;-83
2021/07/19 01:10:16;;;;;;;14.98;5.70;;;;;;;17.85;100.00;98044.50;5053071;28;20041;-82
2021/07/19 01:12:45;;;;;;;15.80;6.10;;;;;;;17.79;100.00;98047.84;5051029;28;20052;-83
2021/07/19 01:15:13;;;;;;;18.60;6.07;;;;;;;17.79;100.00;98048.63;5050473;28;20101;-83
2021/07/19 01:17:43;;;;;;;14.45;6.57;;;;;;;17.83;100.00;98056.97;5049362;28;20045;-84
2021/07/19 01:20:10;;;;;;;10.65;6.18;;;;;;;17.78;100.00;98062.69;5046204;28;20053;-84
2021/07/19 01:22:55;;;;;;;13.40;6.53;;;;;;;17.76;100.00;98064.97;5036878;28;20041;-84
2021/07/19 01:25:57;;;;;;;12.75;6.57;;;;;;;17.63;100.00;98058.75;5055213;28;20067;-86
2021/07/19 01:28:31;;;;;;;12.32;6.57;;;;;;;17.60;100.00;98075.88;5038875;28;20049;-84
2021/07/19 01:31:02;;;;;;;13.63;7.07;;;;;;;17.56;100.00;98079.69;5061691;28;20118;-85
2021/07/19 01:33:30;;;;;;;12.27;6.57;;;;;;;17.58;100.00;98072.69;5028423;28;20702;-83
2021/07/19 01:35:58;;;;;;;15.48;7.03;;;;;;;17.54;100.00;98079.22;5055017;28;20049;-83
2021/07/19 01:38:27;;;;;;;10.25;6.53;;;;;;;17.42;100.00;98060.91;5024167;28;20508;-83
2021/07/19 01:40:55;;;;;;;15.75;6.97;;;;;;;17.55;100.00;98069.88;5028126;28;20088;-85
2021/07/19 01:43:24;;;;;;;15.55;7.03;;;;;;;17.51;100.00;98066.22;5017825;28;20106;-83
2021/07/19 01:45:52;;;;;;;13.93;7.28;;;;;;;17.49;100.00;98054.81;5010472;28;20525;-83
2021/07/19 01:48:20;;;;;;;21.33;6.90;;;;;;;17.50;100.00;98070.13;5016735;28;20049;-82
2021/07/19 01:50:49;;;;;;;16.58;6.90;;;;;;;17.53;100.00;98074.91;5017141;28;20128;-83
2021/07/19 01:53:16;;;;;;;17.02;6.40;;;;;;;17.51;100.00;98077.97;5021904;28;20460;-82
2021/07/19 01:55:44;;;;;;;13.65;6.15;;;;;;;17.52;100.00;98067.81;5007069;28;20096;-85
2021/07/19 01:58:12;;;;;;;11.52;5.82;;;;;;;17.59;100.00;98078.97;5042361;28;20053;-87
2021/07/19 02:00:39;;;;;;;8.77;5.60;;;;;;;17.56;100.00;98074.19;5046493;28;20037;-85
2021/07/19 02:03:06;;;;;;;16.33;5.15;;;;;;;17.53;100.00;98080.38;5013860;28;20053;-83
2021/07/19 02:05:33;;;;;;;12.10;5.32;;;;;;;17.57;100.00;98084.03;5045357;28;20045;-84
2021/07/19 02:08:02;;;;;;;16.95;5.13;;;;;;;17.47;100.00;98068.88;5025626;28;20120;-83
2021/07/19 02:10:30;;;;;;;13.85;5.25;;;;;;;17.57;100.00;98084.03;5044432;28;20099;-84
2021/07/19 02:12:59;;;;;;;10.40;4.90;;;;;;;17.44;100.00;98078.56;5045141;28;20080;-83
2021/07/19 02:15:26;;;;;;;10.18;4.72;;;;;;;17.52;100.00;98079.56;5026381;28;20067;-82
2021/07/19 02:17:56;;;;;;;11.73;4.38;;;;;;;17.53;100.00;98078.44;5043152;28;20052;-81
2021/07/19 02:20:25;;;;;;;12.88;4.10;;;;;;;17.49;100.00;98080.25;5042262;28;20049;-82
2021/07/19 02:22:53;;;;;;;11.05;4.25;;;;;;;17.39;100.00;98078.03;5009327;28;20115;-83
2021/07/19 02:25:21;;;;;;;13.10;4.10;;;;;;;17.42;100.00;98069.88;5042755;28;20079;-82
2021/07/19 02:27:51;;;;;;;7.85;3.60;;;;;;;17.46;100.00;98091.91;5024341;28;20056;-82
2021/07/19 02:30:23;;;;;;;10.35;4.13;;;;;;;17.42;100.00;98086.31;5023458;28;20276;-86
2021/07/19 02:32:53;;;;;;;8.52;3.80;;;;;;;17.46;100.00;98094.63;5040464;28;20113;-85
2021/07/19 02:35:21;;;;;;;9.07;3.53;;;;;;;17.52;100.00;98103.41;5039440;28;20033;-85
2021/07/19 02:37:51;;;;;;;11.25;3.58;;;;;;;17.39;100.00;98092.47;5016612;28;20119;-84
2021/07/19 02:40:21;;;;;;;9.65;3.83;;;;;;;17.39;100.00;98094.44;5034706;28;20056;-83
2021/07/19 02:42:56;;;;;;;11.13;3.97;;;;;;;17.37;100.00;98100.25;5015660;28;20041;-83
2021/07/19 02:45:25;;;;;;;8.37;3.47;;;;;;;17.33;100.00;98099.38;5033954;28;20038;-81
2021/07/19 02:47:52;;;;;;;7.20;3.25;;;;;;;17.30;100.00;98102.78;5015543;28;20064;-85
2021/07/19 02:50:26;;;;;;;13.88;4.10;;;;;;;17.27;100.00;98117.16;5032683;28;20084;-80
2021/07/19 02:52:56;;;;;;;7.30;3.63;;;;;;;17.31;100.00;98117.28;5014247;28;20068;-82
2021/07/19 02:55:24;;;;;;;12.30;4.40;;;;;;;17.26;100.00;98107.38;5036924;28;20052;-84
2021/07/19 02:57:51;;;;;;;7.85;3.83;;;;;;;17.20;100.00;98111.50;5024254;28;20405;-82
2021/07/19 03:00:18;;;;;;;7.80;3.50;;;;;;;17.24;100.00;98117.84;5032822;28;20414;-85
2021/07/19 03:02:53;;;;;;;11.18;4.28;;;;;;;17.26;100.00;98123.78;5011024;28;20057;-86
2021/07/19 03:05:26;;;;;;;8.63;4.10;;;;;;;17.24;100.00;98130.75;4989257;28;20081;-83
2021/07/19 03:25:13;;;;;;;13.32;5.30;;;;;;;17.05;100.00;98130.56;4839067;29;20061;-80
2021/07/19 03:28:28;;;;;;;13.18;5.13;;;;;;;17.01;100.00;98138.66;5061313;23;20053;-79
2021/07/19 03:31:14;;;;;;;11.15;5.45;;;;;;;16.93;100.00;98131.34;5026179;28;20068;-79
2021/07/19 03:34:57;;;;;;;11.70;4.75;;;;;;;16.93;100.00;98119.66;5053517;28;20146;-80
2021/07/19 03:38:20;;;;;;;10.38;4.60;;;;;;;16.98;100.00;98136.59;4935073;29;20125;-79
2021/07/19 03:43:51;;;;;;;13.60;5.25;;;;;;;16.81;100.00;98117.72;5053646;28;20059;-82
2021/07/19 03:46:21;;;;;;;11.05;4.90;;;;;;;17.04;100.00;98145.38;5037424;28;20111;-80
2021/07/19 03:48:48;;;;;;;14.63;4.97;;;;;;;17.01;100.00;98154.28;5054742;28;20095;-79
2021/07/19 03:51:15;;;;;;;11.68;5.43;;;;;;;17.03;100.00;98154.72;5037269;28;20536;-80
2021/07/19 03:53:43;;;;;;;14.48;5.38;;;;;;;16.98;100.00;98161.22;5055069;28;20067;-80
2021/07/19 03:56:09;;;;;;;17.20;5.57;;;;;;;16.95;100.00;98164.66;5054890;28;20045;-81
2021/07/19 03:58:38;;;;;;;10.20;5.40;;;;;;;16.83;100.00;98166.59;5053811;28;20064;-80
2021/07/19 04:01:05;;;;;;;11.43;5.05;;;;;;;16.90;100.00;98162.16;5054765;28;20094;-80
2021/07/19 04:03:44;;;;;;;9.68;5.40;;;;;;;16.79;100.00;98155.53;5054715;28;20045;-80
2021/07/19 04:06:19;;;;;;;11.98;5.43;;;;;;;16.74;100.00;98153.03;5055637;28;20055;-80
2021/07/19 04:08:47;;;;;;;9.85;4.88;;;;;;;16.67;100.00;98153.59;5055121;28;20382;-81
2021/07/19 04:11:16;;;;;;;10.45;5.28;;;;;;;16.67;100.00;98150.09;5058695;28;20045;-81
2021/07/19 04:13:50;;;;;;;13.07;6.18;;;;;;;16.57;100.00;98137.66;5060231;28;20049;-77
2021/07/19 04:16:41;;;;;;;13.27;5.85;;;;;;;16.57;100.00;98162.25;5060481;28;20156;-79
2021/07/19 04:19:12;;;;;;;16.75;6.13;;;;;;;16.64;100.00;98158.97;5062658;28;20045;-78
2021/07/19 04:21:44;;;;;;;11.43;6.05;;;;;;;16.69;100.00;98156.00;5047111;28;20053;-78
2021/07/19 04:24:13;;;;;;;15.10;6.65;;;;;;;16.64;100.00;98161.69;5062467;28;20566;-78
2021/07/19 04:26:41;;;;;;;11.15;6.00;;;;;;;16.70;100.00;98155.66;5061229;28;20464;-79
2021/07/19 04:29:08;;;;;;;13.73;6.82;;;;;;;16.79;100.00;98170.03;5059752;28;20055;-78
2021/07/19 04:31:35;;;;;;;14.40;6.78;;;;;;;16.78;100.00;98167.59;5059546;28;20053;-79
2021/07/19 04:34:01;;;;;;;10.85;6.63;;;;;;;16.87;100.00;98175.72;5063804;28;20040;-78
2021/07/19 04:36:31;;;;;;;15.55;7.07;;;;;;;16.73;100.00;98178.78;5058817;28;20045;-78
2021/07/19 04:38:58;;;;;;;15.55;6.75;;;;;;;16.83;100.00;98163.88;5059729;28;20063;-79
2021/07/19 04:41:24;;;;;;;14.80;7.13;;;;;;;16.81;100.00;98167.72;5059664;28;20055;-80
2021/07/19 04:43:51;;;;;;;13.25;7.38;;;;;;;16.81;100.00;98173.19;5061427;28;20068;-79
2021/07/19 04:46:18;;;;;;;10.88;6.53;;;;;;;16.83;100.00;98168.19;5067541;28;20041;-79
2021/07/19 04:48:45;;;;;;;11.98;6.68;;;;;;;16.70;100.00;98165.78;5064243;28;20109;-80
2021/07/19 04:51:12;;;;;;;15.30;7.00;;;;;;;16.77;100.00;98176.97;5064363;28;20045;-80
2021/07/19 04:53:39;;;;;;;14.80;7.13;;;;;;;16.75;100.00;98180.03;5062608;28;20040;-80
2021/07/19 04:56:12;;;;;;;16.52;7.15;;;;;;;16.78;100.00;98170.34;5058139;28;20110;-81
2021/07/19 04:58:41;;;;;;;15.98;7.65;;;;;;;16.80;100.00;98168.84;5033357;28;20041;-81
2021/07/19 05:01:08;;;;;;;17.63;7.93;;;;;;;16.73;100.00;98176.03;5061594;28;20519;-79
2021/07/19 05:03:38;;;;;;;15.73;7.70;;;;;;;16.70;100.00;98177.53;5067723;28;20048;-80
2021/07/19 05:06:06;;;;;;;15.20;8.15;;;;;;;16.50;100.00;98181.13;5049510;28;20041;-78
2021/07/19 05:08:34;;;;;;;16.15;7.60;;;;;;;16.65;100.00;98180.47;5059736;28;20114;-80
2021/07/19 05:11:01;;;;;;;17.08;7.65;;;;;;;16.56;100.00;98187.19;5058200;28;20102;-79
2021/07/19 05:13:29;;;;;;;16.05;7.80;;;;;;;16.64;100.00;98180.84;5057210;28;20520;-79
2021/07/19 05:15:55;;;;;;;14.25;7.60;;;;;;;16.53;100.00;98177.75;5058728;28;20475;-79
2021/07/19 05:18:25;;;;;;;16.13;6.95;;;;;;;16.60;100.00;98182.63;5057942;28;20052;-81
2021/07/19 05:20:55;;;;;;;13.10;7.88;;;;;;;16.54;100.00;98184.78;5058546;28;20069;-80
2021/07/19 05:23:23;;;;;;;14.30;7.30;;;;;;;16.42;100.00;98181.22;5040471;28;20172;-79
2021/07/19 05:25:51;;;;;;;14.05;7.50;;;;;;;16.36;100.00;98188.88;5055415;28;20045;-80
2021/07/19 05:28:18;;;;;;;14.63;7.40;;;;;;;16.36;100.00;98188.88;5049762;28;20094;-81
2021/07/19 05:30:50;;;;;;;14.55;7.50;;;;;;;16.33;100.00;98200.47;5057043;28;20056;-80
2021/07/19 05:33:18;;;;;;;15.55;7.55;;;;;;;16.38;100.00;98194.78;5056190;28;20305;-79
2021/07/19 05:35:45;;;;;;;15.05;7.50;;;;;;;16.44;100.00;98189.91;5057432;28;20036;-80
2021/07/19 05:38:12;;;;;;;16.85;7.80;;;;;;;16.50;100.00;98192.06;5045917;28;20406;-79
2021/07/19 05:40:39;;;;;;;17.38;7.20;;;;;;;16.40;100.00;98181.56;5034443;28;20041;-79
2021/07/19 05:43:09;;;;;;;17.77;7.88;;;;;;;16.54;100.00;98193.00;5034027;28;20053;-80
2021/07/19 05:45:37;;;;;;;14.73;7.60;;;;;;;16.41;100.00;98198.78;5056124;28;20045;-80
2021/07/19 05:48:07;;;;;;;14.45;7.63;;;;;;;16.29;100.00;98190.53;5061970;28;20056;-81
2021/07/19 05:50:34;;;;;;;14.85;8.15;;;;;;;16.26;100.00;98196.69;5053294;28;20051;-80
2021/07/19 05:53:39;;;;;;;18.63;8.45;;;;;;;15.91;100.00;98186.09;5169139;23;20835;-80
2021/07/19 05:56:34;;;;;;;14.73;8.25;;;;;;;16.00;100.00;98205.94;5031853;28;20060;-81
2021/07/19 05:59:04;;;;;;;18.48;9.23;;;;;;;15.92;100.00;98195.09;5019596;28;20049;-79
2021/07/19 06:01:32;;;;;;;20.88;9.88;;;;;;;15.90;100.00;98206.34;5075446;22;20072;-82
2021/07/19 06:04:01;;;;;;;20.83;10.38;;;;;;;15.90;100.00;98208.28;5055770;28;21061;-79
2021/07/19 06:06:28;;;;;;;18.52;9.30;;;;;;;15.87;100.00;98198.81;5052955;28;20147;-80
2021/07/19 06:08:56;;;;;;;26.98;9.57;;;;;;;15.77;100.00;98206.66;5058818;28;20322;-79
2021/07/19 06:11:40;;;;;;;18.48;9.35;;;;;;;15.70;100.00;98198.97;5061034;28;20045;-79
2021/07/19 06:14:08;;;;;;;16.27;8.40;;;;;;;15.79;100.00;98202.44;5071050;28;20064;-81
2021/07/19 06:16:36;;;;;;;17.38;8.18;;;;;;;15.71;100.00;98197.84;5070179;28;20056;-79
2021/07/19 06:19:17;;;;;;;19.50;8.20;;;;;;;15.70;100.00;98201.72;5050391;28;20045;-79
2021/07/19 06:22:26;;;;;;;21.45;8.52;;;;;;;15.66;100.00;98198.06;5074317;28;20055;-79
2021/07/19 06:24:54;;;;;;;21.30;8.38;;;;;;;15.55;100.00;98170.38;5068438;28;20102;-80
2021/07/19 06:27:22;;;;;;;25.95;8.95;;;;;;;15.88;100.00;98200.44;5061476;28;20304;-82
2021/07/19 06:29:48;;;;;;;21.20;8.93;;;;;;;15.80;100.00;98198.56;5036719;28;20144;-79
2021/07/19 06:32:19;;;;;;;23.45;8.10;;;;;;;15.64;100.00;98197.56;5039100;28;20048;-79
2021/07/19 06:34:47;;;;;;;23.75;8.27;;;;;;;15.79;100.00;98198.91;5041069;28;20061;-80
2021/07/19 06:37:15;;;;;;;21.27;7.30;;;;;;;15.62;100.00;98197.13;5042497;28;20050;-80
2021/07/19 06:39:41;;;;;;;19.27;7.63;;;;;;;15.74;100.00;98196.38;5041000;28;20053;-80
2021/07/19 06:42:08;;;;;;;24.42;8.15;;;;;;;15.84;100.00;98190.53;5039807;28;20184;-80
2021/07/19 06:44:36;;;;;;;18.27;7.63;;;;;;;15.96;100.00;98194.09;5039467;28;20097;-79
2021/07/19 06:47:05;;;;;;;19.38;7.53;;;;;;;16.02;100.00;98200.94;5038547;28;20053;-80
2021/07/19 06:49:35;;;;;;;20.38;7.13;;;;;;;15.90;100.00;98195.41;5042702;28;20041;-83
2021/07/19 06:52:07;;;;;;;22.42;7.00;;;;;;;15.92;100.00;98200.56;5042719;28;20056;-81
2021/07/19 06:54:33;;;;;;;16.98;7.00;;;;;;;15.88;100.00;98205.88;5042670;28;20065;-80
2021/07/19 06:57:02;;;;;;;24.95;7.03;;;;;;;15.84;100.00;98191.31;5040278;28;20148;-80
2021/07/19 06:59:30;;;;;;;19.65;6.60;;;;;;;15.86;100.00;98202.69;5024549;28;20137;-81
2021/07/19 07:01:56;;;;;;;21.88;7.18;;;;;;;15.89;100.00;98193.03;5042737;28;20049;-80
2021/07/19 07:04:27;;;;;;;23.27;6.68;;;;;;;16.07;100.00;98200.75;5040028;28;20109;-80
2021/07/19 07:06:53;;;;;;;18.58;6.65;;;;;;;16.34;100.00;98191.09;5037876;28;20360;-79
2021/07/19 07:09:21;;;;;;;16.48;6.40;;;;;;;16.50;100.00;98188.53;5036482;28;20116;-80
2021/07/19 07:11:50;;;;;;;22.08;6.57;;;;;;;16.32;100.00;98195.31;5037552;28;20072;-79
2021/07/19 07:14:19;;;;;;;20.50;7.07;;;;;;;16.34;100.00;98187.56;5036357;28;20065;-81
2021/07/19 07:16:45;;;;;;;20.35;7.22;;;;;;;16.19;100.00;98202.69;5037817;28;20216;-79
2021/07/19 07:19:13;;;;;;;26.38;7.95;;;;;;;16.13;100.00;98210.28;5037750;28;20042;-81
2021/07/19 07:21:41;;;;;;;27.25;8.25;;;;;;;16.06;100.00;98207.31;5037930;28;20111;-79
2021/07/19 07:24:09;;;;;;;21.77;7.97;;;;;;;16.19;100.00;98213.63;5036725;28;20101;-80
2021/07/19 07:26:35;;;;;;;26.05;8.00;;;;;;;16.02;100.00;98205.59;5038021;28;20045;-80
2021/07/19 07:29:03;;;;;;;24.35;7.82;;;;;;;16.15;100.00;98199.06;5036158;28;20084;-80
2021/07/19 07:31:29;;;;;;;21.05;7.95;;;;;;;16.40;100.00;98202.63;5036053;28;20144;-80
2021/07/19 07:33:58;;;;;;;23.35;7.70;;;;;;;16.45;100.00;98186.00;5035692;28;20046;-80
2021/07/19 07:36:26;;;;;;;22.13;7.22;;;;;;;16.50;100.00;98185.78;5035568;28;20072;-79
2021/07/19 07:38:53;;;;;;;23.52;7.25;;;;;;;16.38;100.00;98188.50;5034427;28;20099;-79
2021/07/19 07:41:29;;;;;;;21.90;6.80;;;;;;;16.70;100.00;98193.94;5034419;28;20095;-80
2021/07/19 07:43:58;;;;;;;22.67;6.90;;;;;;;16.70;100.00;98201.31;5037539;28;20054;-80
2021/07/19 07:46:28;;;;;;;18.90;6.70;;;;;;;16.88;100.00;98189.03;5040048;28;20152;-81
2021/07/19 07:48:58;;;;;;;20.48;6.40;;;;;;;16.81;100.00;98199.75;5044552;28;20041;-79
2021/07/19 07:51:25;;;;;;;24.23;6.40;;;;;;;16.73;100.00;98204.19;5037515;28;20495;-79
2021/07/19 07:53:51;;;;;;;22.95;7.18;;;;;;;16.80;100.00;98187.22;5021499;28;20177;-80
2021/07/19 07:56:20;;;;;;;23.95;6.75;;;;;;;16.81;100.00;98195.09;5038546;28;20042;-80
2021/07/19 07:58:47;;;;;;;22.52;6.60;;;;;;;16.75;100.00;98196.44;5038516;28;20049;-80
2021/07/19 08:01:13;;;;;;;16.85;6.70;;;;;;;17.02;100.00;98184.03;5039870;28;20049;-80
2021/07/19 08:03:42;;;;;;;20.20;6.18;;;;;;;17.11;100.00;98187.41;5039618;28;20045;-80
2021/07/19 08:06:15;;;;;;;17.45;5.97;;;;;;;17.26;100.00;98175.78;5038427;28;20329;-80
2021/07/19 08:08:41;;;;;;;19.42;5.40;;;;;;;16.94;100.00;98181.41;5041381;28;20050;-80
2021/07/19 08:11:08;;;;;;;18.90;6.18;;;;;;;16.96;100.00;98182.66;5039851;28;20049;-80
2021/07/19 08:13:38;;;;;;;19.95;5.93;;;;;;;16.93;100.00;98171.63;5038493;28;20045;-80
2021/07/19 08:16:08;;;;;;;25.38;6.20;;;;;;;16.98;100.00;98176.84;5040529;28;20661;-80
2021/07/19 08:18:35;;;;;;;18.17;5.65;;;;;;;17.13;100.00;98171.47;5037742;28;20049;-80
2021/07/19 08:21:01;;;;;;;24.73;5.72;;;;;;;17.07;100.00;98167.38;5036067;28;20522;-80
2021/07/19 08:23:30;;;;;;;24.80;6.05;;;;;;;16.83;100.00;98157.25;5038324;28;20082;-79
2021/07/19 08:25:57;;;;;;;16.45;6.00;;;;;;;17.19;100.00;98159.13;5036087;28;20041;-79
2021/07/19 08:28:25;;;;;;;19.50;6.22;;;;;;;17.42;100.00;98170.41;5038559;28;20069;-80
2021/07/19 08:30:54;;;;;;;25.15;6.22;;;;;;;17.48;100.00;98162.72;5036330;28;20111;-80
2021/07/19 08:33:21;;;;;;;18.20;5.60;;;;;;;17.55;100.00;98171.97;5035663;28;20061;-80
2021/07/19 08:35:50;;;;;;;14.48;5.15;;;;;;;17.61;100.00;98161.56;5037434;28;20067;-79
2021/07/19 08:38:16;;;;;;;22.20;5.40;;;;;;;17.62;100.00;98160.44;5039504;28;20060;-81
2021/07/19 08:40:46;;;;;;;23.83;5.75;;;;;;;17.40;100.00;98169.94;5040992;28;20113;-79
2021/07/19 08:43:36;;;;;;;16.77;5.43;;;;;;;17.49;100.00;98161.59;5036221;28;20056;-81
2021/07/19 08:46:03;;;;;;;18.50;5.97;;;;;;;17.44;100.00;98157.16;5035216;28;20046;-80
2021/07/19 08:48:31;;;;;;;23.85;7.25;;;;;;;17.31;100.00;98153.66;5040004;28;20045;-80
2021/07/19 08:50:59;;;;;;;17.92;7.45;;;;;;;17.40;100.00;98164.44;5037503;28;20188;-80
2021/07/19 08:53:31;;;;;;;20.00;7.70;;;;;;;17.38;100.00;98169.47;5035167;28;20426;-82
2021/07/19 08:56:02;;;;;;;21.73;8.20;;;;;;;17.13;100.00;98176.16;5033296;28;20152;-81
2021/07/19 08:58:29;;;;;;;24.23;9.20;;;;;;;17.08;100.00;98166.25;5033105;28;20498;-81
2021/07/19 09:00:58;;;;;;;18.33;8.75;;;;;;;17.01;100.00;98176.16;5032260;28;20359;-81
2021/07/19 09:03:29;;;;;;;18.00;9.18;;;;;;;16.98;100.00;98163.94;5032376;28;20041;-83
2021/07/19 09:15:01;;;;;;;21.25;9.50;;;;;;;17.04;100.00;98159.84;4846029;29;20248;-82
2021/07/19 09:18:24;;;;;;;20.40;10.18;;;;;;;16.96;100.00;98160.75;4899701;23;20061;-86
2021/07/19 09:20:51;;;;;;;19.42;10.13;;;;;;;17.05;100.00;98166.94;5032158;28;20339;-86
2021/07/19 09:23:30;;;;;;;21.13;9.85;;;;;;;16.98;100.00;98174.88;5036765;28;20041;-85
2021/07/19 09:26:09;;;;;;;19.73;10.75;;;;;;;17.00;100.00;98158.94;5034220;28;20041;-87
2021/07/19 09:28:35;;;;;;;18.88;9.75;;;;;;;17.09;100.00;98156.06;5018131;28;20050;-83
2021/07/19 09:31:06;;;;;;;19.38;9.85;;;;;;;16.92;100.00;98154.41;5037165;28;20037;-88
2021/07/19 09:33:35;;;;;;;18.30;10.20;;;;;;;17.02;100.00;98125.78;5033572;28;20259;-87
2021/07/19 09:36:05;;;;;;;24.23;9.20;;;;;;;17.10;100.00;98153.00;5017695;28;20145;-87
2021/07/19 09:38:34;;;;;;;16.40;8.55;;;;;;;17.21;100.00;98153.34;5013474;28;20116;-86
2021/07/19 09:41:01;;;;;;;18.38;8.38;;;;;;;17.46;100.00;98163.06;5015376;28;20255;-87
2021/07/19 09:43:32;;;;;;;16.25;8.00;;;;;;;17.39;100.00;98160.91;5012883;28;20445;-88
2021/07/19 09:46:04;;;;;;;17.90;8.07;;;;;;;17.30;100.00;98153.97;5012989;28;20066;-86
2021/07/19 09:48:36;;;;;;;23.73;8.05;;;;;;;17.30;100.00;98160.25;5013780;28;20065;-88
2021/07/19 09:51:04;;;;;;;23.27;8.57;;;;;;;17.38;100.00;98159.34;5012868;28;20142;-88
2021/07/19 09:53:39;;;;;;;18.33;8.02;;;;;;;17.57;100.00;98158.75;5012648;28;20049;-86
2021/07/19 09:56:15;;;;;;;20.70;9.25;;;;;;;17.77;100.00;98146.78;5014197;28;20045;-85
2021/07/19 09:58:47;;;;;;;26.20;9.40;;;;;;;18.10;100.00;98159.41;5013019;28;20417;-85
2021/07/19 10:01:26;;;;;;;20.58;9.40;;;;;;;18.12;100.00;98151.66;5000717;28;20056;-87
2021/07/19 10:04:09;;;;;;;20.75;8.75;;;;;;;18.47;100.00;98149.84;4994309;28;20077;-86
2021/07/19 10:06:40;;;;;;;22.60;8.87;;;;;;;18.58;100.00;98143.47;5027755;28;20042;-85
2021/07/19 10:09:08;;;;;;;22.23;9.30;;;;;;;18.77;100.00;98150.19;5032986;28;20445;-85
2021/07/19 10:11:38;;;;;;;24.35;8.30;;;;;;;18.65;100.00;98151.88;5032257;28;20071;-85
2021/07/19 10:14:07;;;;;;;16.63;7.90;;;;;;;19.11;100.00;98154.91;5019817;28;20045;-86
2021/07/19 10:16:36;;;;;;;20.10;8.43;;;;;;;20.09;100.00;98147.16;5014309;28;20178;-84
2021/07/19 10:19:10;;;;;;;19.92;8.07;;;;;;;20.56;100.00;98144.91;5011709;28;20050;-85
2021/07/19 10:21:37;;;;;;;15.43;7.93;;;;;;;20.91;100.00;98150.16;5000595;28;20060;-86
2021/07/19 10:24:09;;;;;;;16.63;7.78;;;;;;;20.73;100.00;98147.13;5022026;28;20052;-86
2021/07/19 10:26:38;;;;;;;19.85;6.75;;;;;;;20.02;100.00;98152.53;5008986;28;20133;-85
2021/07/19 10:29:06;;;;;;;23.60;7.80;;;;;;;19.88;100.00;98150.28;5010300;28;20069;-87
2021/07/19 10:31:33;;;;;;;18.73;7.75;;;;;;;19.65;100.00;98152.19;5009238;28;20046;-87
2021/07/19 10:34:02;;;;;;;17.77;7.53;;;;;;;19.79;100.00;98150.53;5012977;28;20056;-86
2021/07/19 10:36:33;;;;;;;20.15;7.78;;;;;;;19.60;100.00;98147.78;5009816;28;20054;-87
2021/07/19 10:39:04;;;;;;;21.27;7.97;;;;;;;19.61;100.00;98151.34;5007662;28;20049;-86
2021/07/19 10:41:32;;;;;;;18.88;7.07;;;;;;;19.59;100.00;98143.44;5009293;28;20050;-86
2021/07/19 10:44:08;;;;;;;18.80;6.90;;;;;;;20.14;100.00;98125.66;5009739;28;20069;-88
2021/07/19 10:46:36;;;;;;;20.50;7.35;;;;;;;20.32;100.00;98146.06;5011292;28;20503;-87
2021/07/19 10:49:06;;;;;;;19.48;7.93;;;;;;;20.49;100.00;98134.56;5027425;28;20152;-85
2021/07/19 10:51:47;;;;;;;21.23;8.18;;;;;;;21.57;100.00;98119.28;5028542;28;20440;-85
2021/07/19 10:54:23;;;;;;;17.15;7.57;;;;;;;21.50;100.00;98133.75;5030245;28;20053;-87
2021/07/19 10:56:55;;;;;;;12.30;7.38;;;;;;;20.97;100.00;98130.22;5029855;28;20038;-88
2021/07/19 10:59:28;;;;;;;16.15;7.68;;;;;;;20.86;100.00;98125.72;5021195;28;20048;-86
2021/07/19 11:02:01;;;;;;;20.17;8.15;;;;;;;20.46;100.00;98115.25;5013221;28;20034;-87
2021/07/19 11:04:30;;;;;;;17.63;8.18;;;;;;;20.46;100.00;98134.50;5001321;28;20468;-88
2021/07/19 11:06:59;;;;;;;18.77;8.23;;;;;;;21.03;100.00;98131.47;5006356;28;20042;-85
2021/07/19 11:09:34;;;;;;;19.35;8.40;;;;;;;20.83;100.00;98129.19;4997837;28;20046;-85
2021/07/19 11:12:16;;;;;;;;;;;;;;;23.11;100.00;98132.19;5016058;28;20051;-85
2021/07/19 11:14:47;;;;;;;15.77;7.38;;;;;;;24.13;81.04;98111.34;5015740;28;19958;-85
2021/07/19 11:17:18;;;;;;;13.02;6.65;;;;;;;22.90;94.79;98125.34;5027780;28;20072;-87
2021/07/19 11:19:53;;;;;;;16.55;7.85;;;;;;;22.35;100.00;98118.94;5027395;28;20037;-87
2021/07/19 11:22:23;;;;;;;;;;;;;;;22.27;100.00;98119.28;5022948;28;20163;-86
2021/07/19 11:25:07;;;;;;;13.05;7.25;;;;;;;21.85;100.00;98121.56;5036651;28;20368;-88
2021/07/19 11:27:42;;;;;;;14.65;7.40;;;;;;;21.07;100.00;98113.09;5038807;28;20090;-86
2021/07/19 11:30:23;;;;;;;17.75;7.43;;;;;;;21.71;100.00;98108.41;5016552;28;20041;-88
2021/07/19 11:32:51;;;;;;;17.27;7.53;;;;;;;21.49;100.00;98112.09;5022921;28;20140;-85
2021/07/19 11:35:21;;;;;;;13.75;7.53;;;;;;;23.39;99.01;98113.84;5038676;28;20046;-87
2021/07/19 11:37:50;;;;;;;13.45;6.90;;;;;;;23.73;86.26;98089.50;5026541;28;20489;-86
2021/07/19 11:40:29;;;;;;;17.92;7.00;;;;;;;23.16;100.00;98118.81;5044901;28;20060;-88
2021/07/19 11:43:10;;;;;;;12.90;6.88;;;;;;;21.69;100.00;98106.03;5029948;28;20045;-85
2021/07/19 11:45:42;;;;;;;17.25;7.10;;;;;;;20.70;100.00;98123.09;5039310;28;20109;-89
2021/07/19 11:48:10;;;;;;;11.77;6.78;;;;;;;21.08;100.00;98119.41;5032475;28;20046;-88
2021/07/19 11:50:40;;;;;;;13.80;6.30;;;;;;;22.40;100.00;98119.78;5027462;28;20029;-87
2021/07/19 11:53:09;;;;;;;13.07;6.22;;;;;;;24.60;73.76;98101.91;5038772;28;20084;-87
2021/07/19 11:55:36;;;;;;;13.13;6.30;;;;;;;26.45;57.38;98106.47;5035861;28;20045;-86
2021/07/19 11:58:06;;;;;;;11.20;6.30;;;;;;;26.94;54.60;98085.84;5018500;28;20062;-88
2021/07/19 12:00:37;;;;;;;15.88;6.55;;;;;;;25.97;59.93;98105.56;5021827;28;20046;-86
2021/07/19 12:03:13;;;;;;;13.50;5.97;;;;;;;23.11;79.13;98083.28;5026418;28;20069;-84
2021/07/19 12:05:53;;;;;;;15.45;6.63;;;;;;;22.13;100.00;98088.78;5006247;28;20062;-87